sensor_id;sensor_type;location;lat;lon;timestamp;P1;durP1;ratioP1;P2;durP2;ratioP2
6852;SDS011;3465;42.144;24.722;2023-07-20T00:00:48;9.75;;;5.63;;
6852;SDS011;3465;42.144;24.722;2023-07-20T00:03:15;11.13;;;5.53;;
6852;SDS011;3465;42.144;24.722;2023-07-20T00:05:44;8.18;;;5.15;;
6852;SDS011;3465;42.144;24.722;2023-07-20T00:08:10;8.57;;;5.70;;
6852;SDS011;3465;42.144;24.722;2023-07-20T00:10:36;17.38;;;5.45;;
6852;SDS011;3465;42.144;24.722;2023-07-20T00:13:01;10.98;;;5.68;;
6852;SDS011;3465;42.144;24.722;2023-07-20T00:15:27;10.18;;;5.28;;
6852;SDS011;3465;42.144;24.722;2023-07-20T00:17:52;14.32;;;6.03;;
6852;SDS011;3465;42.144;24.722;2023-07-20T00:20:17;11.20;;;5.03;;
6852;SDS011;3465;42.144;24.722;2023-07-20T00:22:43;9.02;;;4.93;;
6852;SDS011;3465;42.144;24.722;2023-07-20T00:25:08;8.68;;;4.93;;
6852;SDS011;3465;42.144;24.722;2023-07-20T00:27:36;8.70;;;5.45;;
6852;SDS011;3465;42.144;24.722;2023-07-20T00:30:02;13.52;;;5.07;;
6852;SDS011;3465;42.144;24.722;2023-07-20T00:32:29;9.88;;;5.22;;
6852;SDS011;3465;42.144;24.722;2023-07-20T00:34:54;9.90;;;5.00;;
6852;SDS011;3465;42.144;24.722;2023-07-20T00:37:19;12.95;;;4.85;;
6852;SDS011;3465;42.144;24.722;2023-07-20T00:39:45;9.65;;;5.30;;
6852;SDS011;3465;42.144;24.722;2023-07-20T00:42:10;12.95;;;5.50;;
6852;SDS011;3465;42.144;24.722;2023-07-20T00:44:35;13.38;;;5.55;;
6852;SDS011;3465;42.144;24.722;2023-07-20T00:47:01;15.10;;;5.25;;
6852;SDS011;3465;42.144;24.722;2023-07-20T00:49:26;16.05;;;5.40;;
6852;SDS011;3465;42.144;24.722;2023-07-20T00:51:52;12.00;;;5.03;;
6852;SDS011;3465;42.144;24.722;2023-07-20T00:54:17;13.90;;;4.97;;
6852;SDS011;3465;42.144;24.722;2023-07-20T00:56:43;10.45;;;4.88;;
6852;SDS011;3465;42.144;24.722;2023-07-20T00:59:09;12.07;;;5.38;;
6852;SDS011;3465;42.144;24.722;2023-07-20T01:01:36;15.70;;;5.10;;
6852;SDS011;3465;42.144;24.722;2023-07-20T01:04:01;10.98;;;5.43;;
6852;SDS011;3465;42.144;24.722;2023-07-20T01:09:51;7.55;;;4.90;;
6852;SDS011;3465;42.144;24.722;2023-07-20T01:12:25;9.40;;;4.70;;
6852;SDS011;3465;42.144;24.722;2023-07-20T01:14:55;13.48;;;4.72;;
6852;SDS011;3465;42.144;24.722;2023-07-20T01:17:21;14.52;;;5.25;;
6852;SDS011;3465;42.144;24.722;2023-07-20T01:19:46;12.05;;;5.10;;
6852;SDS011;3465;42.144;24.722;2023-07-20T01:22:19;8.10;;;4.90;;
6852;SDS011;3465;42.144;24.722;2023-07-20T01:27:59;16.25;;;5.47;;
6852;SDS011;3465;42.144;24.722;2023-07-20T01:33:08;15.07;;;4.75;;
6852;SDS011;3465;42.144;24.722;2023-07-20T01:35:36;15.52;;;5.38;;
6852;SDS011;3465;42.144;24.722;2023-07-20T01:38:06;17.45;;;5.65;;
6852;SDS011;3465;42.144;24.722;2023-07-20T01:40:32;12.50;;;4.95;;
6852;SDS011;3465;42.144;24.722;2023-07-20T01:42:59;13.68;;;5.20;;
6852;SDS011;3465;42.144;24.722;2023-07-20T01:45:24;11.68;;;4.97;;
6852;SDS011;3465;42.144;24.722;2023-07-20T01:47:50;12.30;;;5.13;;
6852;SDS011;3465;42.144;24.722;2023-07-20T01:50:16;16.40;;;5.55;;
6852;SDS011;3465;42.144;24.722;2023-07-20T01:52:41;9.20;;;5.32;;
6852;SDS011;3465;42.144;24.722;2023-07-20T01:55:07;15.73;;;5.07;;
6852;SDS011;3465;42.144;24.722;2023-07-20T01:57:32;15.52;;;5.68;;
6852;SDS011;3465;42.144;24.722;2023-07-20T01:59:58;8.77;;;5.05;;
6852;SDS011;3465;42.144;24.722;2023-07-20T02:02:26;11.48;;;5.13;;
6852;SDS011;3465;42.144;24.722;2023-07-20T02:04:53;14.07;;;5.45;;
6852;SDS011;3465;42.144;24.722;2023-07-20T02:07:18;14.18;;;5.65;;
6852;SDS011;3465;42.144;24.722;2023-07-20T02:09:44;17.35;;;5.25;;
6852;SDS011;3465;42.144;24.722;2023-07-20T02:12:09;16.52;;;5.13;;
6852;SDS011;3465;42.144;24.722;2023-07-20T02:14:34;14.95;;;5.03;;
6852;SDS011;3465;42.144;24.722;2023-07-20T02:17:00;12.13;;;5.15;;
6852;SDS011;3465;42.144;24.722;2023-07-20T02:19:26;11.98;;;5.93;;
6852;SDS011;3465;42.144;24.722;2023-07-20T02:21:52;13.90;;;5.28;;
6852;SDS011;3465;42.144;24.722;2023-07-20T02:24:17;17.50;;;5.70;;
6852;SDS011;3465;42.144;24.722;2023-07-20T02:26:43;17.15;;;5.55;;
6852;SDS011;3465;42.144;24.722;2023-07-20T02:29:08;9.63;;;4.93;;
6852;SDS011;3465;42.144;24.722;2023-07-20T02:31:36;12.20;;;5.65;;
6852;SDS011;3465;42.144;24.722;2023-07-20T02:34:05;13.23;;;5.47;;
6852;SDS011;3465;42.144;24.722;2023-07-20T02:36:31;11.60;;;5.63;;
6852;SDS011;3465;42.144;24.722;2023-07-20T02:38:59;13.88;;;5.80;;
6852;SDS011;3465;42.144;24.722;2023-07-20T02:41:27;12.00;;;5.53;;
6852;SDS011;3465;42.144;24.722;2023-07-20T02:43:52;17.63;;;5.57;;
6852;SDS011;3465;42.144;24.722;2023-07-20T02:46:17;16.25;;;5.63;;
6852;SDS011;3465;42.144;24.722;2023-07-20T02:48:43;22.67;;;6.18;;
6852;SDS011;3465;42.144;24.722;2023-07-20T02:51:08;16.48;;;6.22;;
6852;SDS011;3465;42.144;24.722;2023-07-20T02:53:34;17.05;;;6.10;;
6852;SDS011;3465;42.144;24.722;2023-07-20T02:55:59;18.25;;;6.03;;
6852;SDS011;3465;42.144;24.722;2023-07-20T02:58:25;23.92;;;5.72;;
6852;SDS011;3465;42.144;24.722;2023-07-20T03:00:50;29.48;;;6.15;;
6852;SDS011;3465;42.144;24.722;2023-07-20T03:03:15;15.38;;;5.90;;
6852;SDS011;3465;42.144;24.722;2023-07-20T03:05:41;15.30;;;6.15;;
6852;SDS011;3465;42.144;24.722;2023-07-20T03:08:07;23.33;;;5.60;;
6852;SDS011;3465;42.144;24.722;2023-07-20T03:10:33;21.45;;;6.60;;
6852;SDS011;3465;42.144;24.722;2023-07-20T03:13:03;30.92;;;6.10;;
6852;SDS011;3465;42.144;24.722;2023-07-20T03:15:28;19.60;;;5.80;;
6852;SDS011;3465;42.144;24.722;2023-07-20T03:17:54;24.75;;;6.50;;
6852;SDS011;3465;42.144;24.722;2023-07-20T03:20:19;20.45;;;5.78;;
6852;SDS011;3465;42.144;24.722;2023-07-20T03:22:45;12.43;;;6.07;;
6852;SDS011;3465;42.144;24.722;2023-07-20T03:25:11;20.30;;;6.30;;
6852;SDS011;3465;42.144;24.722;2023-07-20T03:27:36;16.73;;;6.22;;
6852;SDS011;3465;42.144;24.722;2023-07-20T03:30:02;20.60;;;6.28;;
6852;SDS011;3465;42.144;24.722;2023-07-20T03:32:27;13.63;;;5.43;;
6852;SDS011;3465;42.144;24.722;2023-07-20T03:34:53;26.73;;;7.20;;
6852;SDS011;3465;42.144;24.722;2023-07-20T03:37:18;17.75;;;5.72;;
6852;SDS011;3465;42.144;24.722;2023-07-20T03:39:44;24.98;;;7.30;;
6852;SDS011;3465;42.144;24.722;2023-07-20T03:42:09;25.42;;;6.50;;
6852;SDS011;3465;42.144;24.722;2023-07-20T03:44:34;14.80;;;5.65;;
6852;SDS011;3465;42.144;24.722;2023-07-20T03:47:00;20.80;;;5.78;;
6852;SDS011;3465;42.144;24.722;2023-07-20T03:49:25;15.85;;;5.90;;
6852;SDS011;3465;42.144;24.722;2023-07-20T03:51:51;13.63;;;6.10;;
6852;SDS011;3465;42.144;24.722;2023-07-20T03:54:16;22.17;;;6.75;;
6852;SDS011;3465;42.144;24.722;2023-07-20T03:56:41;27.70;;;7.18;;
6852;SDS011;3465;42.144;24.722;2023-07-20T03:59:07;16.48;;;6.10;;
6852;SDS011;3465;42.144;24.722;2023-07-20T04:01:33;24.35;;;6.60;;
6852;SDS011;3465;42.144;24.722;2023-07-20T04:04:02;23.33;;;7.18;;
6852;SDS011;3465;42.144;24.722;2023-07-20T04:06:31;15.30;;;5.60;;
6852;SDS011;3465;42.144;24.722;2023-07-20T04:08:56;17.60;;;6.05;;
6852;SDS011;3465;42.144;24.722;2023-07-20T04:11:22;24.98;;;6.43;;
6852;SDS011;3465;42.144;24.722;2023-07-20T04:13:47;20.90;;;6.55;;
6852;SDS011;3465;42.144;24.722;2023-07-20T04:16:12;29.75;;;7.40;;
6852;SDS011;3465;42.144;24.722;2023-07-20T04:18:38;19.45;;;6.57;;
6852;SDS011;3465;42.144;24.722;2023-07-20T04:21:03;28.60;;;6.93;;
6852;SDS011;3465;42.144;24.722;2023-07-20T04:23:29;24.92;;;7.28;;
6852;SDS011;3465;42.144;24.722;2023-07-20T04:25:54;22.88;;;6.50;;
6852;SDS011;3465;42.144;24.722;2023-07-20T04:28:19;19.85;;;6.75;;
6852;SDS011;3465;42.144;24.722;2023-07-20T04:30:48;29.20;;;6.97;;
6852;SDS011;3465;42.144;24.722;2023-07-20T04:33:14;35.70;;;8.00;;
6852;SDS011;3465;42.144;24.722;2023-07-20T04:35:49;20.65;;;6.75;;
6852;SDS011;3465;42.144;24.722;2023-07-20T04:38:19;19.50;;;6.95;;
6852;SDS011;3465;42.144;24.722;2023-07-20T04:40:45;18.77;;;7.50;;
6852;SDS011;3465;42.144;24.722;2023-07-20T04:43:12;14.48;;;7.40;;
6852;SDS011;3465;42.144;24.722;2023-07-20T04:45:37;19.27;;;6.88;;
6852;SDS011;3465;42.144;24.722;2023-07-20T04:48:03;19.08;;;7.20;;
6852;SDS011;3465;42.144;24.722;2023-07-20T04:50:30;31.92;;;6.97;;
6852;SDS011;3465;42.144;24.722;2023-07-20T04:52:56;18.98;;;6.63;;
6852;SDS011;3465;42.144;24.722;2023-07-20T04:55:21;19.05;;;6.97;;
6852;SDS011;3465;42.144;24.722;2023-07-20T04:57:47;23.48;;;6.78;;
6852;SDS011;3465;42.144;24.722;2023-07-20T05:00:12;19.55;;;6.80;;
6852;SDS011;3465;42.144;24.722;2023-07-20T05:02:39;24.52;;;7.22;;
6852;SDS011;3465;42.144;24.722;2023-07-20T05:05:04;29.30;;;6.72;;
6852;SDS011;3465;42.144;24.722;2023-07-20T05:07:31;22.15;;;6.85;;
6852;SDS011;3465;42.144;24.722;2023-07-20T05:09:56;16.52;;;6.57;;
6852;SDS011;3465;42.144;24.722;2023-07-20T05:12:22;28.83;;;6.95;;
6852;SDS011;3465;42.144;24.722;2023-07-20T05:14:47;15.90;;;6.43;;
6852;SDS011;3465;42.144;24.722;2023-07-20T05:17:13;21.88;;;7.03;;
6852;SDS011;3465;42.144;24.722;2023-07-20T05:19:41;17.40;;;6.90;;
6852;SDS011;3465;42.144;24.722;2023-07-20T05:22:07;14.52;;;6.65;;
6852;SDS011;3465;42.144;24.722;2023-07-20T05:24:32;21.40;;;7.70;;
6852;SDS011;3465;42.144;24.722;2023-07-20T05:26:58;14.98;;;6.53;;
6852;SDS011;3465;42.144;24.722;2023-07-20T05:29:23;13.90;;;6.30;;
6852;SDS011;3465;42.144;24.722;2023-07-20T05:31:49;17.65;;;5.85;;
6852;SDS011;3465;42.144;24.722;2023-07-20T05:34:14;21.50;;;6.78;;
6852;SDS011;3465;42.144;24.722;2023-07-20T05:39:33;15.73;;;6.55;;
6852;SDS011;3465;42.144;24.722;2023-07-20T05:41:59;20.88;;;6.57;;
6852;SDS011;3465;42.144;24.722;2023-07-20T05:44:24;16.33;;;6.18;;
6852;SDS011;3465;42.144;24.722;2023-07-20T05:46:49;17.35;;;6.75;;
6852;SDS011;3465;42.144;24.722;2023-07-20T05:49:15;16.70;;;5.88;;
6852;SDS011;3465;42.144;24.722;2023-07-20T05:51:40;18.10;;;6.32;;
6852;SDS011;3465;42.144;24.722;2023-07-20T05:54:05;17.23;;;6.72;;
6852;SDS011;3465;42.144;24.722;2023-07-20T05:56:31;15.75;;;6.10;;
6852;SDS011;3465;42.144;24.722;2023-07-20T05:58:56;17.08;;;6.30;;
6852;SDS011;3465;42.144;24.722;2023-07-20T06:01:22;16.17;;;6.35;;
6852;SDS011;3465;42.144;24.722;2023-07-20T06:03:47;14.30;;;5.65;;
6852;SDS011;3465;42.144;24.722;2023-07-20T06:06:13;11.90;;;5.78;;
6852;SDS011;3465;42.144;24.722;2023-07-20T06:08:38;12.40;;;6.10;;
6852;SDS011;3465;42.144;24.722;2023-07-20T06:11:04;14.23;;;6.10;;
6852;SDS011;3465;42.144;24.722;2023-07-20T06:13:29;16.45;;;5.93;;
6852;SDS011;3465;42.144;24.722;2023-07-20T06:15:55;18.38;;;6.32;;
6852;SDS011;3465;42.144;24.722;2023-07-20T06:18:23;18.73;;;5.80;;
6852;SDS011;3465;42.144;24.722;2023-07-20T06:20:51;13.43;;;5.78;;
6852;SDS011;3465;42.144;24.722;2023-07-20T06:23:18;10.20;;;5.78;;
6852;SDS011;3465;42.144;24.722;2023-07-20T06:25:44;26.75;;;6.68;;
6852;SDS011;3465;42.144;24.722;2023-07-20T06:28:09;24.42;;;6.45;;
6852;SDS011;3465;42.144;24.722;2023-07-20T06:30:35;14.18;;;6.07;;
6852;SDS011;3465;42.144;24.722;2023-07-20T06:33:01;20.92;;;6.78;;
6852;SDS011;3465;42.144;24.722;2023-07-20T06:35:27;11.55;;;5.63;;
6852;SDS011;3465;42.144;24.722;2023-07-20T06:37:52;15.10;;;6.28;;
6852;SDS011;3465;42.144;24.722;2023-07-20T06:40:17;13.98;;;5.50;;
6852;SDS011;3465;42.144;24.722;2023-07-20T06:42:43;11.02;;;5.68;;
6852;SDS011;3465;42.144;24.722;2023-07-20T06:45:09;12.40;;;5.32;;
6852;SDS011;3465;42.144;24.722;2023-07-20T06:47:39;10.35;;;5.18;;
6852;SDS011;3465;42.144;24.722;2023-07-20T06:50:05;14.65;;;5.55;;
6852;SDS011;3465;42.144;24.722;2023-07-20T06:52:36;15.13;;;5.20;;
6852;SDS011;3465;42.144;24.722;2023-07-20T06:55:02;11.68;;;5.15;;
6852;SDS011;3465;42.144;24.722;2023-07-20T06:57:27;12.73;;;5.75;;
6852;SDS011;3465;42.144;24.722;2023-07-20T06:59:53;10.20;;;5.43;;
6852;SDS011;3465;42.144;24.722;2023-07-20T07:02:18;12.48;;;4.68;;
6852;SDS011;3465;42.144;24.722;2023-07-20T07:04:44;14.88;;;5.10;;
6852;SDS011;3465;42.144;24.722;2023-07-20T07:07:10;9.32;;;4.82;;
6852;SDS011;3465;42.144;24.722;2023-07-20T07:09:36;10.90;;;5.07;;
6852;SDS011;3465;42.144;24.722;2023-07-20T07:12:01;14.23;;;5.38;;
6852;SDS011;3465;42.144;24.722;2023-07-20T07:14:26;12.90;;;5.55;;
6852;SDS011;3465;42.144;24.722;2023-07-20T07:16:52;13.70;;;5.10;;
6852;SDS011;3465;42.144;24.722;2023-07-20T07:19:17;11.73;;;5.18;;
6852;SDS011;3465;42.144;24.722;2023-07-20T07:21:43;18.90;;;5.40;;
6852;SDS011;3465;42.144;24.722;2023-07-20T07:24:08;13.63;;;5.40;;
6852;SDS011;3465;42.144;24.722;2023-07-20T07:26:35;17.08;;;5.18;;
6852;SDS011;3465;42.144;24.722;2023-07-20T07:29:01;12.30;;;4.97;;
6852;SDS011;3465;42.144;24.722;2023-07-20T07:31:28;12.93;;;4.88;;
6852;SDS011;3465;42.144;24.722;2023-07-20T07:33:54;9.60;;;4.68;;
6852;SDS011;3465;42.144;24.722;2023-07-20T07:36:20;10.48;;;4.13;;
6852;SDS011;3465;42.144;24.722;2023-07-20T07:38:45;10.70;;;4.68;;
6852;SDS011;3465;42.144;24.722;2023-07-20T07:41:11;9.07;;;4.38;;
6852;SDS011;3465;42.144;24.722;2023-07-20T07:43:36;10.77;;;4.10;;
6852;SDS011;3465;42.144;24.722;2023-07-20T07:46:03;6.00;;;3.97;;
6852;SDS011;3465;42.144;24.722;2023-07-20T07:48:28;8.48;;;4.47;;
6852;SDS011;3465;42.144;24.722;2023-07-20T07:50:54;15.23;;;5.13;;
6852;SDS011;3465;42.144;24.722;2023-07-20T07:53:19;9.88;;;4.90;;
6852;SDS011;3465;42.144;24.722;2023-07-20T07:55:47;15.82;;;4.80;;
6852;SDS011;3465;42.144;24.722;2023-07-20T07:58:13;18.27;;;5.93;;
6852;SDS011;3465;42.144;24.722;2023-07-20T08:00:39;20.42;;;5.25;;
6852;SDS011;3465;42.144;24.722;2023-07-20T08:03:05;11.48;;;5.13;;
6852;SDS011;3465;42.144;24.722;2023-07-20T08:05:32;12.07;;;4.90;;
6852;SDS011;3465;42.144;24.722;2023-07-20T08:07:58;17.08;;;5.18;;
6852;SDS011;3465;42.144;24.722;2023-07-20T08:10:23;15.90;;;4.85;;
6852;SDS011;3465;42.144;24.722;2023-07-20T08:12:49;12.68;;;4.72;;
6852;SDS011;3465;42.144;24.722;2023-07-20T08:15:14;11.15;;;4.40;;
6852;SDS011;3465;42.144;24.722;2023-07-20T08:17:40;17.13;;;4.72;;
6852;SDS011;3465;42.144;24.722;2023-07-20T08:20:07;14.50;;;6.00;;
6852;SDS011;3465;42.144;24.722;2023-07-20T08:22:36;13.63;;;5.57;;
6852;SDS011;3465;42.144;24.722;2023-07-20T08:25:01;7.53;;;5.07;;
6852;SDS011;3465;42.144;24.722;2023-07-20T08:27:26;13.95;;;5.32;;
6852;SDS011;3465;42.144;24.722;2023-07-20T08:29:52;14.18;;;5.70;;
6852;SDS011;3465;42.144;24.722;2023-07-20T08:32:17;12.80;;;4.93;;
6852;SDS011;3465;42.144;24.722;2023-07-20T08:34:42;8.38;;;4.97;;
6852;SDS011;3465;42.144;24.722;2023-07-20T08:37:08;11.38;;;5.38;;
6852;SDS011;3465;42.144;24.722;2023-07-20T08:39:35;10.95;;;5.15;;
6852;SDS011;3465;42.144;24.722;2023-07-20T08:42:01;12.52;;;4.93;;
6852;SDS011;3465;42.144;24.722;2023-07-20T08:44:29;15.90;;;5.30;;
6852;SDS011;3465;42.144;24.722;2023-07-20T08:46:56;11.85;;;5.05;;
6852;SDS011;3465;42.144;24.722;2023-07-20T08:49:23;11.38;;;5.50;;
6852;SDS011;3465;42.144;24.722;2023-07-20T08:51:48;8.57;;;5.65;;
6852;SDS011;3465;42.144;24.722;2023-07-20T08:54:15;18.20;;;5.75;;
6852;SDS011;3465;42.144;24.722;2023-07-20T08:56:41;16.38;;;5.78;;
6852;SDS011;3465;42.144;24.722;2023-07-20T08:59:10;16.52;;;5.50;;
6852;SDS011;3465;42.144;24.722;2023-07-20T09:01:41;16.15;;;6.32;;
6852;SDS011;3465;42.144;24.722;2023-07-20T09:04:08;12.68;;;5.57;;
6852;SDS011;3465;42.144;24.722;2023-07-20T09:06:34;10.52;;;5.18;;
6852;SDS011;3465;42.144;24.722;2023-07-20T09:09:00;12.68;;;5.22;;
6852;SDS011;3465;42.144;24.722;2023-07-20T09:11:25;20.52;;;5.70;;
6852;SDS011;3465;42.144;24.722;2023-07-20T09:14:03;15.48;;;5.10;;
6852;SDS011;3465;42.144;24.722;2023-07-20T09:16:31;14.48;;;5.63;;
6852;SDS011;3465;42.144;24.722;2023-07-20T09:18:58;12.70;;;4.90;;
6852;SDS011;3465;42.144;24.722;2023-07-20T09:21:24;13.07;;;5.13;;
6852;SDS011;3465;42.144;24.722;2023-07-20T09:23:53;10.50;;;4.90;;
6852;SDS011;3465;42.144;24.722;2023-07-20T09:26:21;16.10;;;5.20;;
6852;SDS011;3465;42.144;24.722;2023-07-20T09:28:47;16.83;;;5.97;;
6852;SDS011;3465;42.144;24.722;2023-07-20T09:31:18;10.95;;;4.95;;
6852;SDS011;3465;42.144;24.722;2023-07-20T09:33:48;12.98;;;5.00;;
6852;SDS011;3465;42.144;24.722;2023-07-20T09:36:14;11.10;;;5.22;;
6852;SDS011;3465;42.144;24.722;2023-07-20T09:38:40;9.80;;;4.60;;
6852;SDS011;3465;42.144;24.722;2023-07-20T09:41:07;20.50;;;5.47;;
6852;SDS011;3465;42.144;24.722;2023-07-20T09:43:34;9.40;;;4.70;;
6852;SDS011;3465;42.144;24.722;2023-07-20T09:45:59;13.52;;;5.45;;
6852;SDS011;3465;42.144;24.722;2023-07-20T09:48:25;10.18;;;4.90;;
6852;SDS011;3465;42.144;24.722;2023-07-20T09:50:51;11.80;;;5.32;;
6852;SDS011;3465;42.144;24.722;2023-07-20T09:53:18;12.50;;;5.40;;
6852;SDS011;3465;42.144;24.722;2023-07-20T09:55:45;15.45;;;5.40;;
6852;SDS011;3465;42.144;24.722;2023-07-20T09:58:12;16.05;;;5.50;;
6852;SDS011;3465;42.144;24.722;2023-07-20T10:00:39;12.88;;;5.72;;
6852;SDS011;3465;42.144;24.722;2023-07-20T10:03:08;12.18;;;4.90;;
6852;SDS011;3465;42.144;24.722;2023-07-20T10:05:36;7.82;;;4.80;;
6852;SDS011;3465;42.144;24.722;2023-07-20T10:08:08;12.48;;;5.32;;
6852;SDS011;3465;42.144;24.722;2023-07-20T10:10:37;16.52;;;5.00;;
6852;SDS011;3465;42.144;24.722;2023-07-20T10:13:06;14.70;;;5.20;;
6852;SDS011;3465;42.144;24.722;2023-07-20T10:15:43;10.20;;;5.00;;
6852;SDS011;3465;42.144;24.722;2023-07-20T10:18:25;13.68;;;5.10;;
6852;SDS011;3465;42.144;24.722;2023-07-20T10:20:54;10.57;;;4.97;;
6852;SDS011;3465;42.144;24.722;2023-07-20T10:23:21;9.48;;;5.18;;
6852;SDS011;3465;42.144;24.722;2023-07-20T10:25:47;12.68;;;4.90;;
6852;SDS011;3465;42.144;24.722;2023-07-20T10:28:13;8.88;;;4.65;;
6852;SDS011;3465;42.144;24.722;2023-07-20T10:30:39;11.48;;;5.00;;
6852;SDS011;3465;42.144;24.722;2023-07-20T10:33:06;11.63;;;5.15;;
6852;SDS011;3465;42.144;24.722;2023-07-20T10:35:50;16.42;;;5.05;;
6852;SDS011;3465;42.144;24.722;2023-07-20T10:41:20;14.30;;;4.65;;
6852;SDS011;3465;42.144;24.722;2023-07-20T10:43:49;10.30;;;4.85;;
6852;SDS011;3465;42.144;24.722;2023-07-20T10:46:33;8.55;;;4.70;;
6852;SDS011;3465;42.144;24.722;2023-07-20T10:49:05;7.75;;;4.55;;
6852;SDS011;3465;42.144;24.722;2023-07-20T10:51:41;9.98;;;4.70;;
6852;SDS011;3465;42.144;24.722;2023-07-20T10:54:08;10.95;;;5.20;;
6852;SDS011;3465;42.144;24.722;2023-07-20T10:56:55;11.05;;;5.13;;
6852;SDS011;3465;42.144;24.722;2023-07-20T11:01:59;15.65;;;5.30;;
6852;SDS011;3465;42.144;24.722;2023-07-20T11:04:43;11.30;;;4.53;;
6852;SDS011;3465;42.144;24.722;2023-07-20T11:07:09;13.82;;;4.40;;
6852;SDS011;3465;42.144;24.722;2023-07-20T11:09:35;12.65;;;4.32;;
6852;SDS011;3465;42.144;24.722;2023-07-20T11:12:08;11.45;;;4.55;;
6852;SDS011;3465;42.144;24.722;2023-07-20T11:14:35;12.73;;;5.13;;
6852;SDS011;3465;42.144;24.722;2023-07-20T11:17:12;9.25;;;4.50;;
6852;SDS011;3465;42.144;24.722;2023-07-20T11:19:40;14.85;;;4.80;;
6852;SDS011;3465;42.144;24.722;2023-07-20T11:22:06;19.40;;;5.72;;
6852;SDS011;3465;42.144;24.722;2023-07-20T11:24:33;11.50;;;4.85;;
6852;SDS011;3465;42.144;24.722;2023-07-20T11:26:59;20.60;;;5.05;;
6852;SDS011;3465;42.144;24.722;2023-07-20T11:29:26;16.38;;;4.90;;
6852;SDS011;3465;42.144;24.722;2023-07-20T11:31:51;6.15;;;4.07;;
6852;SDS011;3465;42.144;24.722;2023-07-20T11:34:17;8.85;;;4.47;;
6852;SDS011;3465;42.144;24.722;2023-07-20T11:36:45;9.50;;;4.90;;
6852;SDS011;3465;42.144;24.722;2023-07-20T11:39:15;10.25;;;4.32;;
6852;SDS011;3465;42.144;24.722;2023-07-20T11:41:59;12.52;;;4.43;;
6852;SDS011;3465;42.144;24.722;2023-07-20T11:44:28;10.57;;;4.00;;
6852;SDS011;3465;42.144;24.722;2023-07-20T11:49:43;10.15;;;4.13;;
6852;SDS011;3465;42.144;24.722;2023-07-20T11:52:14;11.70;;;4.68;;
6852;SDS011;3465;42.144;24.722;2023-07-20T11:54:42;11.57;;;4.40;;
6852;SDS011;3465;42.144;24.722;2023-07-20T11:57:20;12.35;;;4.25;;
6852;SDS011;3465;42.144;24.722;2023-07-20T12:02:29;10.90;;;4.68;;
6852;SDS011;3465;42.144;24.722;2023-07-20T12:04:55;16.25;;;6.95;;
6852;SDS011;3465;42.144;24.722;2023-07-20T12:07:21;12.80;;;4.05;;
6852;SDS011;3465;42.144;24.722;2023-07-20T12:12:38;7.05;;;4.20;;
6852;SDS011;3465;42.144;24.722;2023-07-20T12:15:15;10.10;;;4.05;;
6852;SDS011;3465;42.144;24.722;2023-07-20T12:17:42;7.07;;;4.50;;
6852;SDS011;3465;42.144;24.722;2023-07-20T12:20:11;11.73;;;4.65;;
6852;SDS011;3465;42.144;24.722;2023-07-20T12:22:39;10.32;;;4.72;;
6852;SDS011;3465;42.144;24.722;2023-07-20T12:25:06;8.82;;;4.28;;
6852;SDS011;3465;42.144;24.722;2023-07-20T12:27:33;8.18;;;4.28;;
6852;SDS011;3465;42.144;24.722;2023-07-20T12:30:02;8.25;;;4.05;;
6852;SDS011;3465;42.144;24.722;2023-07-20T12:32:29;10.75;;;4.30;;
6852;SDS011;3465;42.144;24.722;2023-07-20T12:34:54;10.82;;;4.55;;
6852;SDS011;3465;42.144;24.722;2023-07-20T12:37:20;9.43;;;3.72;;
6852;SDS011;3465;42.144;24.722;2023-07-20T12:39:45;9.30;;;3.97;;
6852;SDS011;3465;42.144;24.722;2023-07-20T12:42:12;11.32;;;4.10;;
6852;SDS011;3465;42.144;24.722;2023-07-20T12:44:39;8.57;;;4.00;;
6852;SDS011;3465;42.144;24.722;2023-07-20T12:47:05;9.35;;;4.18;;
6852;SDS011;3465;42.144;24.722;2023-07-20T12:49:30;11.60;;;4.10;;
6852;SDS011;3465;42.144;24.722;2023-07-20T12:51:56;13.70;;;4.32;;
6852;SDS011;3465;42.144;24.722;2023-07-20T12:54:21;23.98;;;4.82;;
6852;SDS011;3465;42.144;24.722;2023-07-20T12:56:46;14.77;;;4.68;;
6852;SDS011;3465;42.144;24.722;2023-07-20T12:59:12;14.07;;;4.90;;
6852;SDS011;3465;42.144;24.722;2023-07-20T13:01:37;7.47;;;4.43;;
6852;SDS011;3465;42.144;24.722;2023-07-20T13:04:03;11.52;;;4.65;;
6852;SDS011;3465;42.144;24.722;2023-07-20T13:06:28;17.25;;;4.65;;
6852;SDS011;3465;42.144;24.722;2023-07-20T13:08:54;18.50;;;4.60;;
6852;SDS011;3465;42.144;24.722;2023-07-20T13:11:21;9.02;;;4.15;;
6852;SDS011;3465;42.144;24.722;2023-07-20T13:13:47;14.82;;;4.93;;
6852;SDS011;3465;42.144;24.722;2023-07-20T13:16:13;16.90;;;4.68;;
6852;SDS011;3465;42.144;24.722;2023-07-20T13:18:39;10.20;;;4.57;;
6852;SDS011;3465;42.144;24.722;2023-07-20T13:21:05;10.65;;;4.85;;
6852;SDS011;3465;42.144;24.722;2023-07-20T13:23:35;11.63;;;4.93;;
6852;SDS011;3465;42.144;24.722;2023-07-20T13:26:00;10.20;;;4.80;;
6852;SDS011;3465;42.144;24.722;2023-07-20T13:28:26;14.43;;;4.55;;
6852;SDS011;3465;42.144;24.722;2023-07-20T13:30:51;13.02;;;4.63;;
6852;SDS011;3465;42.144;24.722;2023-07-20T13:33:17;11.85;;;4.57;;
6852;SDS011;3465;42.144;24.722;2023-07-20T13:35:42;10.95;;;4.90;;
6852;SDS011;3465;42.144;24.722;2023-07-20T13:38:08;11.95;;;4.15;;
6852;SDS011;3465;42.144;24.722;2023-07-20T13:40:34;7.53;;;4.32;;
6852;SDS011;3465;42.144;24.722;2023-07-20T13:43:00;14.48;;;4.43;;
6852;SDS011;3465;42.144;24.722;2023-07-20T13:45:25;16.00;;;5.28;;
6852;SDS011;3465;42.144;24.722;2023-07-20T13:47:51;11.65;;;4.32;;
6852;SDS011;3465;42.144;24.722;2023-07-20T13:50:16;10.93;;;4.10;;
6852;SDS011;3465;42.144;24.722;2023-07-20T13:52:42;10.82;;;4.20;;
6852;SDS011;3465;42.144;24.722;2023-07-20T13:55:07;7.47;;;4.10;;
6852;SDS011;3465;42.144;24.722;2023-07-20T13:57:33;10.68;;;4.35;;
6852;SDS011;3465;42.144;24.722;2023-07-20T13:59:58;12.50;;;4.10;;
6852;SDS011;3465;42.144;24.722;2023-07-20T14:02:25;11.00;;;4.18;;
6852;SDS011;3465;42.144;24.722;2023-07-20T14:04:51;19.85;;;4.82;;
6852;SDS011;3465;42.144;24.722;2023-07-20T14:07:16;8.65;;;3.97;;
6852;SDS011;3465;42.144;24.722;2023-07-20T14:09:42;14.00;;;4.30;;
6852;SDS011;3465;42.144;24.722;2023-07-20T14:12:07;9.32;;;4.68;;
6852;SDS011;3465;42.144;24.722;2023-07-20T14:14:36;11.18;;;4.28;;
6852;SDS011;3465;42.144;24.722;2023-07-20T14:17:01;11.70;;;4.40;;
6852;SDS011;3465;42.144;24.722;2023-07-20T14:19:27;12.35;;;4.20;;
6852;SDS011;3465;42.144;24.722;2023-07-20T14:21:52;11.63;;;4.60;;
6852;SDS011;3465;42.144;24.722;2023-07-20T14:24:17;13.43;;;4.18;;
6852;SDS011;3465;42.144;24.722;2023-07-20T14:26:43;8.93;;;4.18;;
6852;SDS011;3465;42.144;24.722;2023-07-20T14:29:08;9.70;;;4.10;;
6852;SDS011;3465;42.144;24.722;2023-07-20T14:31:33;9.25;;;4.10;;
6852;SDS011;3465;42.144;24.722;2023-07-20T14:33:59;11.95;;;4.43;;
6852;SDS011;3465;42.144;24.722;2023-07-20T14:36:24;9.95;;;4.32;;
6852;SDS011;3465;42.144;24.722;2023-07-20T14:38:50;14.35;;;4.57;;
6852;SDS011;3465;42.144;24.722;2023-07-20T14:41:15;10.23;;;4.05;;
6852;SDS011;3465;42.144;24.722;2023-07-20T14:43:40;16.92;;;4.60;;
6852;SDS011;3465;42.144;24.722;2023-07-20T14:46:06;12.07;;;4.10;;
6852;SDS011;3465;42.144;24.722;2023-07-20T14:48:31;13.93;;;3.95;;
6852;SDS011;3465;42.144;24.722;2023-07-20T14:50:57;9.68;;;3.95;;
6852;SDS011;3465;42.144;24.722;2023-07-20T14:53:22;11.93;;;4.60;;
6852;SDS011;3465;42.144;24.722;2023-07-20T14:55:48;11.80;;;3.55;;
6852;SDS011;3465;42.144;24.722;2023-07-20T14:58:13;13.77;;;3.38;;
6852;SDS011;3465;42.144;24.722;2023-07-20T15:00:38;11.43;;;3.63;;
6852;SDS011;3465;42.144;24.722;2023-07-20T15:03:04;11.15;;;3.03;;
6852;SDS011;3465;42.144;24.722;2023-07-20T15:05:30;9.85;;;3.40;;
6852;SDS011;3465;42.144;24.722;2023-07-20T15:07:56;9.90;;;3.42;;
6852;SDS011;3465;42.144;24.722;2023-07-20T15:10:21;13.10;;;3.83;;
6852;SDS011;3465;42.144;24.722;2023-07-20T15:12:47;8.32;;;3.38;;